createdAt,value
2023-01-17T00:05:11.749Z,100178.84
2023-01-17T00:20:33.671Z,100187.81
2023-01-17T00:35:35.928Z,100160.09
2023-01-17T00:50:57.025Z,100152.31
2023-01-17T01:06:17.492Z,100137.81
2023-01-17T04:35:36.700Z,100007.88
2023-01-17T04:50:39.676Z,100003.66
2023-01-17T05:05:43.519Z,99996.03
2023-01-17T05:20:45.426Z,99992.94
2023-01-17T05:35:47.655Z,99995.72
2023-01-17T05:50:49.520Z,99996.25
2023-01-17T06:05:51.447Z,99995.59
2023-01-17T06:20:54.883Z,99994.53
2023-01-17T06:35:56.918Z,99959.78
2023-01-17T06:50:58.788Z,99951.44
2023-01-17T07:06:04.954Z,99934.28
2023-01-17T07:21:11.976Z,99937.72
2023-01-17T07:36:14.196Z,99929.75
2023-01-17T07:51:16.340Z,99925.09
2023-01-17T08:06:22.244Z,99926.09
2023-01-17T08:21:24.641Z,99922.38
2023-01-17T08:36:28.391Z,99943.22
2023-01-17T08:51:31.690Z,99902.47
2023-01-17T13:34:53.263Z,99146.44
2023-01-17T13:49:56.861Z,99405.72
2023-01-17T14:05:24.272Z,99492.38
2023-01-17T14:20:26.032Z,99520.00
2023-01-17T14:35:34.903Z,99560.00
2023-01-17T14:50:39.520Z,99568.53
2023-01-17T15:05:43.581Z,99588.53
2023-01-17T15:20:58.286Z,99599.94
2023-01-17T15:36:37.086Z,99606.53
2023-01-17T15:51:39.432Z,99603.91
2023-01-17T16:06:45.920Z,99588.47
2023-01-17T16:21:48.581Z,99577.97
2023-01-17T16:37:06.841Z,99574.72
2023-01-17T16:52:08.669Z,99620.22
2023-01-17T17:07:10.527Z,99639.22
2023-01-17T17:22:12.331Z,99632.69
2023-01-17T17:37:16.794Z,99604.63
2023-01-17T17:52:18.634Z,99622.06
2023-01-17T18:07:20.563Z,99599.31
2023-01-17T18:22:22.452Z,99565.59
2023-01-17T18:37:24.716Z,99571.75
2023-01-17T18:52:26.527Z,99549.53
2023-01-17T19:07:29.860Z,99503.59
2023-01-17T22:56:47.230Z,98222.72
2023-01-17T23:11:55.334Z,98297.09
2023-01-17T23:27:15.560Z,98403.34
2023-01-17T23:42:36.121Z,98540.41
2023-01-17T23:57:38.510Z,98636.38
